Time;durP1;ratioP1;P1;durP2;ratioP2;P2;SDS_P1;SDS_P2;PMS_P1;PMS_P2;Temp;Humidity;BMP_temperature;BMP_pressure;BME280_temperature;BME280_humidity;BME280_pressure;Samples;Min_cycle;Max_cycle;Signal;HPM_P1;HPM_P2
2021/09/18 00:01:34;;;;;;;11.02;8.77;;;;;;;11.07;50.31;95578.66;4992410;28;20080;-69
2021/09/18 00:04:00;;;;;;;11.93;9.23;;;;;;;11.02;49.90;95580.22;4992221;28;20146;-69
2021/09/18 00:06:26;;;;;;;12.88;8.60;;;;;;;11.04;49.65;95581.69;4992725;28;20034;-69
2021/09/18 00:08:51;;;;;;;11.98;9.30;;;;;;;11.00;49.83;95577.72;4990704;28;20046;-69
2021/09/18 00:11:16;;;;;;;13.20;8.70;;;;;;;11.01;50.04;95579.38;4990448;28;20038;-69
2021/09/18 00:13:42;;;;;;;11.05;9.00;;;;;;;10.96;50.49;95573.78;4990986;28;20178;-69
2021/09/18 00:16:07;;;;;;;13.50;10.02;;;;;;;10.96;50.82;95587.09;4987819;28;20042;-69
2021/09/18 00:18:33;;;;;;;11.00;8.55;;;;;;;10.92;50.59;95586.63;4980684;28;20034;-69
2021/09/18 00:21:02;;;;;;;12.38;9.13;;;;;;;10.93;50.50;95579.44;4989899;28;20500;-69
2021/09/18 00:23:27;;;;;;;10.95;8.20;;;;;;;10.91;50.77;95578.81;4990650;28;20046;-69
2021/09/18 00:25:53;;;;;;;11.35;8.27;;;;;;;10.92;50.89;95577.81;4990909;28;20092;-69
2021/09/18 00:28:18;;;;;;;10.63;8.07;;;;;;;10.99;50.16;95576.06;4990575;28;20066;-69
2021/09/18 00:30:43;;;;;;;10.57;8.25;;;;;;;11.04;50.37;95581.69;4990923;28;20038;-69
2021/09/18 00:33:09;;;;;;;12.70;9.73;;;;;;;11.11;49.95;95579.97;4991796;28;20400;-69
2021/09/18 00:35:34;;;;;;;13.63;10.25;;;;;;;11.13;49.98;95575.28;4991491;28;20045;-69
2021/09/18 00:38:00;;;;;;;13.05;9.73;;;;;;;11.17;50.15;95582.91;4991838;28;20034;-69
2021/09/18 00:40:25;;;;;;;11.55;9.25;;;;;;;11.21;50.19;95582.38;4988234;28;20038;-69
2021/09/18 00:42:51;;;;;;;11.70;8.90;;;;;;;11.25;50.58;95580.16;4990186;28;20027;-69
2021/09/18 00:45:16;;;;;;;10.40;8.07;;;;;;;11.35;50.27;95580.72;4982280;28;20027;-69
2021/09/18 00:47:42;;;;;;;10.88;8.35;;;;;;;11.42;49.90;95572.81;4988803;28;20090;-69
2021/09/18 00:50:08;;;;;;;12.30;8.70;;;;;;;11.51;49.79;95573.53;4980305;28;20034;-69
2021/09/18 00:52:33;;;;;;;9.75;7.63;;;;;;;11.59;49.62;95572.63;4990056;28;20034;-69
2021/09/18 00:54:59;;;;;;;10.75;7.80;;;;;;;11.59;49.70;95576.09;4973753;28;20037;-69
2021/09/18 00:57:24;;;;;;;11.07;7.63;;;;;;;11.62;49.56;95570.41;4989052;28;20034;-69
2021/09/18 00:59:50;;;;;;;11.60;7.60;;;;;;;11.66;49.66;95570.84;4989805;28;20383;-69
2021/09/18 01:02:15;;;;;;;12.25;8.30;;;;;;;11.68;49.32;95566.19;4978433;28;20203;-69
2021/09/18 01:04:40;;;;;;;12.50;8.68;;;;;;;11.70;49.26;95566.00;4990856;28;20097;-69
2021/09/18 01:07:06;;;;;;;11.43;8.82;;;;;;;11.72;49.49;95562.13;4989276;28;20030;-69
2021/09/18 01:09:32;;;;;;;12.20;8.20;;;;;;;11.78;49.61;95565.88;4990049;28;20034;-69
2021/09/18 01:11:58;;;;;;;10.85;8.55;;;;;;;11.82;48.89;95559.16;4985578;28;20034;-69
2021/09/18 01:14:23;;;;;;;10.77;8.95;;;;;;;11.82;48.64;95564.50;4973793;28;20054;-69
2021/09/18 01:16:49;;;;;;;13.07;8.57;;;;;;;11.79;48.51;95558.72;4988873;28;20415;-69
2021/09/18 01:19:14;;;;;;;12.38;9.23;;;;;;;11.72;48.75;95562.13;4989464;28;20123;-69
2021/09/18 01:21:40;;;;;;;11.65;8.80;;;;;;;11.76;48.78;95558.06;4989670;28;20034;-69
2021/09/18 01:24:05;;;;;;;11.25;8.68;;;;;;;11.79;48.98;95556.84;4990791;28;20042;-69
2021/09/18 01:26:35;;;;;;;14.10;9.35;;;;;;;11.76;48.80;95559.91;4991219;28;20088;-69
2021/09/18 01:29:02;;;;;;;13.07;10.10;;;;;;;11.68;48.95;95552.84;4989136;28;20041;-69
2021/09/18 01:31:28;;;;;;;12.02;8.50;;;;;;;11.62;49.57;95562.41;4990217;28;20053;-69
2021/09/18 01:33:53;;;;;;;11.43;8.68;;;;;;;11.61;49.25;95566.09;4973498;28;20471;-69
2021/09/18 01:36:19;;;;;;;11.60;8.90;;;;;;;11.60;49.12;95561.75;4958731;28;20094;-69
2021/09/18 01:38:44;;;;;;;12.07;9.02;;;;;;;11.60;49.15;95567.09;4964054;28;20031;-69
2021/09/18 01:41:09;;;;;;;11.73;8.45;;;;;;;11.66;49.08;95568.19;4970900;28;20400;-69
2021/09/18 01:43:35;;;;;;;10.93;8.57;;;;;;;11.69;49.00;95564.34;4971258;28;20035;-69
2021/09/18 01:46:00;;;;;;;11.98;9.88;;;;;;;11.68;48.82;95560.00;4960899;28;20037;-69
2021/09/18 01:48:26;;;;;;;13.35;10.27;;;;;;;11.67;48.94;95564.53;4962302;28;20520;-69
2021/09/18 01:50:53;;;;;;;14.30;10.95;;;;;;;11.64;49.35;95559.56;4969867;28;20400;-69
2021/09/18 01:53:23;;;;;;;12.80;10.20;;;;;;;11.63;48.92;95558.72;4954133;28;20033;-69
2021/09/18 01:55:48;;;;;;;12.15;9.63;;;;;;;11.59;49.45;95565.44;4973207;28;20455;-72
2021/09/18 01:58:14;;;;;;;12.45;9.25;;;;;;;11.57;49.31;95561.31;4953699;28;20038;-69
2021/09/18 02:00:53;;;;;;;13.55;9.40;;;;;;;11.48;49.11;95558.75;4977065;28;20187;-69
2021/09/18 02:03:18;;;;;;;11.80;9.45;;;;;;;11.48;49.24;95557.91;4967089;28;20097;-69
2021/09/18 02:05:44;;;;;;;12.95;10.30;;;;;;;11.44;49.11;95559.28;4972940;28;20034;-69
2021/09/18 02:08:09;;;;;;;12.38;9.40;;;;;;;11.38;49.21;95556.38;4988616;28;20067;-69
2021/09/18 02:10:35;;;;;;;17.40;10.80;;;;;;;11.33;48.89;95552.59;4990266;28;20034;-69
2021/09/18 02:13:01;;;;;;;14.35;10.45;;;;;;;11.31;49.25;95551.94;4988761;28;20464;-69
2021/09/18 02:15:27;;;;;;;14.63;9.98;;;;;;;11.22;49.12;95548.56;4969653;28;20081;-69
2021/09/18 02:17:52;;;;;;;15.73;11.30;;;;;;;11.24;49.07;95538.53;4969453;28;20047;-69
2021/09/18 02:20:19;;;;;;;12.68;10.32;;;;;;;11.19;49.43;95540.94;4961659;28;20081;-69
2021/09/18 02:22:44;;;;;;;16.73;11.43;;;;;;;11.16;49.62;95542.13;4970720;28;20034;-69
2021/09/18 02:25:10;;;;;;;19.92;12.10;;;;;;;11.19;49.86;95538.28;4988372;28;20104;-69
2021/09/18 02:27:36;;;;;;;15.73;12.15;;;;;;;11.17;50.33;95541.13;4985110;28;20109;-69
2021/09/18 02:30:02;;;;;;;15.70;11.70;;;;;;;11.22;49.97;95543.25;4969684;28;20122;-69
2021/09/18 02:32:27;;;;;;;17.08;12.07;;;;;;;11.23;49.82;95539.56;4982781;28;20045;-69
2021/09/18 02:34:53;;;;;;;15.48;11.70;;;;;;;11.26;49.82;95544.53;4976860;28;20030;-69
2021/09/18 02:37:20;;;;;;;15.02;10.52;;;;;;;11.25;49.94;95542.84;4990192;28;20578;-69
2021/09/18 02:39:45;;;;;;;13.57;11.15;;;;;;;11.25;49.81;95548.19;4988261;28;20060;-69
2021/09/18 02:42:11;;;;;;;14.80;9.68;;;;;;;11.25;49.62;95550.84;4990385;28;20653;-69
2021/09/18 02:44:36;;;;;;;14.65;11.00;;;;;;;11.29;49.73;95548.66;4989299;28;20579;-69
2021/09/18 02:47:02;;;;;;;15.10;10.10;;;;;;;11.24;50.33;95541.19;4989458;28;20057;-69
2021/09/18 02:49:27;;;;;;;12.90;9.73;;;;;;;11.28;50.08;95545.16;4962778;28;20038;-69
2021/09/18 02:51:52;;;;;;;15.95;9.80;;;;;;;11.34;49.41;95546.25;4989474;28;20054;-69
2021/09/18 02:54:18;;;;;;;13.50;11.18;;;;;;;11.35;49.44;95550.56;4990045;28;20041;-69
2021/09/18 02:56:43;;;;;;;12.95;9.18;;;;;;;11.33;49.78;95547.28;4989181;28;20045;-69
2021/09/18 02:59:09;;;;;;;13.98;10.52;;;;;;;11.32;49.88;95537.63;4988124;28;20038;-69
2021/09/18 03:01:35;;;;;;;14.30;10.38;;;;;;;11.34;49.95;95540.91;4976914;28;20049;-70
2021/09/18 03:04:01;;;;;;;14.40;10.05;;;;;;;11.37;49.77;95535.22;4972316;28;20038;-69
2021/09/18 03:06:26;;;;;;;13.95;11.13;;;;;;;11.38;49.61;95532.38;4989882;28;20038;-69
2021/09/18 03:08:51;;;;;;;11.73;9.23;;;;;;;11.42;49.25;95529.34;4989466;28;20390;-69
2021/09/18 03:11:17;;;;;;;11.00;8.63;;;;;;;11.40;49.43;95529.53;4989782;28;20454;-69
2021/09/18 03:13:42;;;;;;;10.98;9.38;;;;;;;11.38;49.63;95521.72;4989980;28;20054;-69
2021/09/18 03:16:08;;;;;;;13.27;8.55;;;;;;;11.38;49.55;95521.72;4985506;28;20037;-69
2021/09/18 03:18:33;;;;;;;12.00;9.40;;;;;;;11.36;49.57;95523.72;4963097;28;20030;-69
2021/09/18 03:20:59;;;;;;;11.55;8.45;;;;;;;11.36;49.60;95523.72;4991862;28;20038;-69
2021/09/18 03:23:24;;;;;;;11.43;9.20;;;;;;;11.39;49.35;95523.38;4978093;28;20584;-69
2021/09/18 03:25:50;;;;;;;13.57;8.45;;;;;;;11.35;49.70;95516.75;4993530;28;20049;-70
2021/09/18 03:28:15;;;;;;;11.30;8.73;;;;;;;11.31;49.78;95515.47;4991677;28;20039;-69
2021/09/18 03:30:41;;;;;;;16.23;9.75;;;;;;;11.28;49.83;95520.34;4993197;28;20101;-69
2021/09/18 03:33:06;;;;;;;14.73;9.52;;;;;;;11.25;49.22;95526.84;4992739;28;20726;-69
2021/09/18 03:35:31;;;;;;;11.73;8.50;;;;;;;11.19;49.42;95519.63;4992723;28;20113;-69
2021/09/18 03:37:57;;;;;;;13.95;9.05;;;;;;;11.17;49.24;95525.13;4991451;28;20073;-69
2021/09/18 03:40:22;;;;;;;11.85;8.30;;;;;;;11.16;49.50;95519.97;4992466;28;20112;-70
2021/09/18 03:42:48;;;;;;;18.20;10.98;;;;;;;11.10;49.21;95518.88;4992682;28;20030;-69
2021/09/18 03:45:13;;;;;;;14.05;9.65;;;;;;;11.06;49.40;95521.06;4990831;28;20376;-69
2021/09/18 03:47:39;;;;;;;14.50;11.27;;;;;;;11.02;49.58;95516.28;4991676;28;20034;-69
2021/09/18 03:50:05;;;;;;;13.45;10.00;;;;;;;10.95;49.25;95518.84;4967951;28;20042;-69
2021/09/18 03:52:30;;;;;;;12.88;9.27;;;;;;;10.92;49.47;95516.53;4990887;28;20050;-69
2021/09/18 03:54:56;;;;;;;12.77;9.10;;;;;;;10.91;49.74;95521.03;4992185;28;20042;-69
2021/09/18 03:57:22;;;;;;;11.88;8.85;;;;;;;10.88;49.71;95519.56;4991019;28;20030;-69
2021/09/18 03:59:47;;;;;;;11.65;8.20;;;;;;;10.88;49.56;95521.41;4975010;28;20066;-69
2021/09/18 04:02:13;;;;;;;10.43;8.57;;;;;;;10.82;48.82;95517.66;4991085;28;20451;-69
2021/09/18 04:04:38;;;;;;;10.75;7.97;;;;;;;10.78;49.06;95507.53;4963091;28;20043;-69
2021/09/18 04:07:04;;;;;;;13.25;9.73;;;;;;;10.73;49.02;95516.06;4990062;28;20037;-69
2021/09/18 04:09:29;;;;;;;9.70;7.60;;;;;;;10.68;49.27;95515.78;4990784;28;20018;-69
2021/09/18 04:11:55;;;;;;;11.15;7.88;;;;;;;10.68;48.81;95521.13;4990158;28;20046;-69
2021/09/18 04:14:20;;;;;;;11.20;8.75;;;;;;;10.61;48.95;95521.03;4991855;28;20057;-69
2021/09/18 04:16:47;;;;;;;11.75;8.63;;;;;;;10.58;48.86;95526.69;4990625;28;20455;-69
2021/09/18 04:19:13;;;;;;;13.55;9.57;;;;;;;10.52;49.44;95527.41;4978686;28;20047;-70
2021/09/18 04:21:38;;;;;;;13.85;10.15;;;;;;;10.49;49.45;95525.94;4972140;28;20572;-69
2021/09/18 04:24:04;;;;;;;15.00;8.77;;;;;;;10.42;50.14;95532.97;4996794;28;20479;-69
2021/09/18 04:26:30;;;;;;;13.05;10.02;;;;;;;10.37;50.12;95533.50;4989873;28;20042;-69
2021/09/18 04:28:56;;;;;;;11.57;9.20;;;;;;;10.32;50.14;95533.22;4991403;28;20177;-69
2021/09/18 04:31:21;;;;;;;13.43;9.75;;;;;;;10.24;49.76;95528.81;4989834;28;20111;-69
2021/09/18 04:33:46;;;;;;;12.38;8.85;;;;;;;10.17;49.58;95538.50;4989719;28;20061;-69
2021/09/18 04:36:12;;;;;;;12.73;10.00;;;;;;;10.09;49.56;95534.03;4990366;28;20515;-69
2021/09/18 04:38:37;;;;;;;11.40;8.20;;;;;;;10.06;49.54;95532.56;4988998;28;20035;-69
2021/09/18 04:41:03;;;;;;;11.02;8.85;;;;;;;10.01;49.68;95536.72;4990202;28;20039;-69
2021/09/18 04:43:28;;;;;;;13.75;11.20;;;;;;;9.94;49.86;95531.28;4989291;28;20089;-69
2021/09/18 04:45:54;;;;;;;18.17;13.45;;;;;;;9.83;50.56;95528.03;4978259;28;20424;-69
2021/09/18 04:48:19;;;;;;;17.05;12.35;;;;;;;9.87;50.81;95535.66;4978304;28;20732;-69
2021/09/18 04:50:44;;;;;;;14.48;10.48;;;;;;;9.87;51.13;95536.50;4985750;28;20464;-70
2021/09/18 04:53:10;;;;;;;15.07;11.00;;;;;;;9.87;51.30;95547.13;4988790;28;20035;-69
2021/09/18 04:55:35;;;;;;;12.60;10.30;;;;;;;9.85;51.55;95546.47;4988870;28;20053;-69
2021/09/18 04:58:02;;;;;;;12.15;9.38;;;;;;;9.81;51.44;95539.84;4988531;28;20346;-69
2021/09/18 05:00:27;;;;;;;13.13;10.48;;;;;;;9.78;50.90;95537.53;4985078;28;20082;-69
2021/09/18 05:02:52;;;;;;;11.77;8.93;;;;;;;9.72;51.27;95539.91;4969308;28;20061;-69
2021/09/18 05:05:18;;;;;;;11.77;8.52;;;;;;;9.67;50.93;95549.41;4991278;28;20307;-69
2021/09/18 05:07:43;;;;;;;11.77;8.90;;;;;;;9.66;51.21;95550.41;4990962;28;20503;-69
2021/09/18 05:10:09;;;;;;;11.70;8.57;;;;;;;9.63;51.49;95554.25;4991252;28;20034;-69
2021/09/18 05:12:35;;;;;;;12.02;8.60;;;;;;;9.59;51.21;95556.41;4989047;28;20038;-69
2021/09/18 05:15:00;;;;;;;11.27;8.65;;;;;;;9.56;51.29;95555.94;4988999;28;20101;-69
2021/09/18 05:17:26;;;;;;;11.35;9.48;;;;;;;9.55;51.37;95560.41;4990760;28;20085;-69
2021/09/18 05:19:51;;;;;;;12.25;9.30;;;;;;;9.52;51.21;95566.06;4990724;28;20026;-69
2021/09/18 05:22:17;;;;;;;11.15;7.93;;;;;;;9.53;51.51;95561.59;4991341;28;20030;-69
2021/09/18 05:24:42;;;;;;;12.75;9.10;;;;;;;9.54;51.12;95558.75;4990386;28;20539;-69
2021/09/18 05:27:08;;;;;;;10.77;8.35;;;;;;;9.51;51.20;95560.91;4988993;28;20104;-69
2021/09/18 05:29:33;;;;;;;11.30;8.90;;;;;;;9.49;51.60;95561.13;4990790;28;20498;-69
2021/09/18 05:31:58;;;;;;;10.85;9.07;;;;;;;9.46;50.85;95558.78;4981829;28;20042;-69
2021/09/18 05:34:24;;;;;;;8.55;7.28;;;;;;;9.44;51.32;95561.63;4971768;28;20085;-69
2021/09/18 05:36:49;;;;;;;8.57;7.05;;;;;;;9.47;51.20;95565.75;4977461;28;20117;-69
2021/09/18 05:39:15;;;;;;;8.40;6.63;;;;;;;9.52;50.41;95566.06;4984116;28;20045;-69
2021/09/18 05:41:40;;;;;;;8.02;6.80;;;;;;;9.50;50.29;95568.06;4989339;28;20037;-69
2021/09/18 05:44:06;;;;;;;9.38;6.85;;;;;;;9.53;50.40;95574.88;4961826;28;20035;-69
2021/09/18 05:46:31;;;;;;;9.77;7.10;;;;;;;9.55;50.65;95568.38;4985978;28;20122;-69
2021/09/18 05:48:57;;;;;;;12.25;7.57;;;;;;;9.61;50.67;95563.38;4983389;28;20421;-69
2021/09/18 05:51:22;;;;;;;10.27;8.48;;;;;;;9.66;50.75;95579.66;4990043;28;20698;-69
2021/09/18 05:53:48;;;;;;;15.65;12.10;;;;;;;9.70;52.04;95571.13;4988640;28;20058;-69
2021/09/18 05:56:13;;;;;;;14.82;10.98;;;;;;;9.74;53.94;95581.41;4988481;28;20042;-69
2021/09/18 05:58:38;;;;;;;19.15;11.82;;;;;;;9.69;54.73;95581.97;4990040;28;20034;-69
2021/09/18 06:01:04;;;;;;;16.88;12.48;;;;;;;9.78;54.36;95580.91;4973944;28;20070;-69
2021/09/18 06:03:29;;;;;;;17.52;13.13;;;;;;;9.91;53.64;95582.16;4979002;28;20455;-70
2021/09/18 06:05:55;;;;;;;17.58;12.98;;;;;;;10.17;53.25;95579.22;4988737;28;20034;-69
2021/09/18 06:08:21;;;;;;;15.52;12.50;;;;;;;10.35;53.58;95581.59;4977646;28;20042;-69
2021/09/18 06:10:47;;;;;;;22.10;14.73;;;;;;;10.50;53.53;95580.81;4984974;28;20483;-69
2021/09/18 06:13:12;;;;;;;15.00;11.10;;;;;;;10.68;53.31;95577.84;4964322;28;20066;-69
2021/09/18 06:15:38;;;;;;;16.85;12.75;;;;;;;10.87;52.89;95581.00;4971818;28;20608;-69
2021/09/18 06:18:03;;;;;;;17.40;12.95;;;;;;;11.01;53.10;95584.69;4986190;28;20038;-69
2021/09/18 06:20:29;;;;;;;14.98;11.27;;;;;;;11.16;52.51;95581.25;4985804;28;20857;-69
2021/09/18 06:22:55;;;;;;;14.80;10.73;;;;;;;11.31;51.94;95584.75;4984863;28;20094;-69
2021/09/18 06:25:20;;;;;;;12.68;9.10;;;;;;;11.48;51.17;95584.56;4986155;28;20090;-69
2021/09/18 06:27:46;;;;;;;10.75;8.10;;;;;;;11.64;50.29;95588.91;4984052;28;20186;-69
2021/09/18 06:30:12;;;;;;;11.13;8.27;;;;;;;11.76;49.78;95582.06;4986022;28;20094;-69
2021/09/18 06:32:37;;;;;;;11.40;8.50;;;;;;;11.90;49.58;95587.59;4985091;28;20125;-69
2021/09/18 06:35:03;;;;;;;11.23;7.97;;;;;;;12.05;49.08;95584.03;4986508;28;20106;-69
2021/09/18 06:37:28;;;;;;;10.73;7.85;;;;;;;12.19;49.11;95582.34;4985338;28;20090;-69
2021/09/18 06:39:54;;;;;;;10.65;7.63;;;;;;;12.28;48.79;95590.06;4984079;28;20099;-70
2021/09/18 06:42:19;;;;;;;11.23;7.63;;;;;;;12.42;48.75;95590.22;4984479;28;20079;-69
2021/09/18 06:44:45;;;;;;;9.57;7.18;;;;;;;12.60;48.36;95595.09;4984004;28;20042;-69
2021/09/18 06:47:11;;;;;;;9.85;7.43;;;;;;;12.72;48.25;95592.72;4983908;28;20086;-70
2021/09/18 06:49:37;;;;;;;7.95;6.63;;;;;;;12.30;50.23;95583.72;4977712;28;20104;-69
2021/09/18 06:52:02;;;;;;;10.60;6.88;;;;;;;12.31;50.12;95591.53;4962521;28;20579;-69
2021/09/18 06:54:28;;;;;;;10.38;8.55;;;;;;;12.48;49.92;95588.63;4969823;28;20071;-69
2021/09/18 06:56:53;;;;;;;9.85;8.13;;;;;;;12.63;49.44;95589.38;4984912;28;20042;-70
2021/09/18 06:59:19;;;;;;;10.52;7.15;;;;;;;12.79;49.00;95595.47;4987081;28;20045;-70
2021/09/18 07:01:45;;;;;;;13.68;8.68;;;;;;;12.92;48.94;95598.25;4989068;28;20039;-70
2021/09/18 07:04:10;;;;;;;16.35;12.77;;;;;;;13.12;49.35;95583.41;4986697;28;20590;-70
2021/09/18 07:06:36;;;;;;;24.33;18.25;;;;;;;13.15;50.82;95586.50;4987788;28;20038;-70
2021/09/18 07:09:01;;;;;;;29.50;19.92;;;;;;;12.81;51.70;95585.41;4988706;28;20113;-70
2021/09/18 07:11:26;;;;;;;26.25;19.45;;;;;;;13.21;50.86;95586.75;4986180;28;20106;-70
2021/09/18 07:13:52;;;;;;;33.17;24.27;;;;;;;12.86;52.34;95595.53;4985282;28;20598;-70
2021/09/18 07:16:17;;;;;;;26.67;20.40;;;;;;;13.03;52.40;95591.56;4989036;28;20111;-70
2021/09/18 07:18:43;;;;;;;24.50;18.83;;;;;;;13.74;49.46;95593.44;4987893;28;20653;-69
2021/09/18 07:21:08;;;;;;;24.65;19.00;;;;;;;13.92;49.27;95601.78;4988785;28;20554;-70
2021/09/18 07:23:34;;;;;;;27.13;20.42;;;;;;;13.94;50.14;95612.28;4987089;28;20099;-70
2021/09/18 07:25:59;;;;;;;24.60;18.92;;;;;;;13.77;49.57;95599.19;4989053;28;20086;-70
2021/09/18 07:28:24;;;;;;;26.90;19.13;;;;;;;13.79;48.07;95601.69;4988983;28;20325;-70
2021/09/18 07:30:50;;;;;;;27.40;21.00;;;;;;;14.32;49.08;95613.63;4987625;28;20118;-70
2021/09/18 07:33:15;;;;;;;25.20;19.15;;;;;;;14.52;48.66;95612.84;4988161;28;20105;-70
2021/09/18 07:35:41;;;;;;;25.17;18.83;;;;;;;14.53;48.71;95606.47;4988196;28;20140;-70
2021/09/18 07:38:06;;;;;;;27.52;20.08;;;;;;;15.07;47.87;95619.94;4988819;28;20527;-70
2021/09/18 07:40:33;;;;;;;32.45;22.20;;;;;;;15.31;47.09;95610.44;4987993;28;20107;-70
2021/09/18 07:42:59;;;;;;;27.05;19.92;;;;;;;15.35;45.77;95619.72;4968671;28;20071;-70
2021/09/18 07:45:24;;;;;;;34.92;23.48;;;;;;;15.45;46.78;95616.59;4986174;28;20093;-70
2021/09/18 07:47:49;;;;;;;33.88;24.88;;;;;;;15.30;47.08;95621.38;4966037;28;20099;-70
2021/09/18 07:50:15;;;;;;;34.38;24.42;;;;;;;15.19;47.41;95612.91;4966491;28;20511;-70
2021/09/18 07:52:40;;;;;;;29.67;20.88;;;;;;;15.29;45.94;95623.22;4977077;28;20394;-69
2021/09/18 07:55:07;;;;;;;27.88;21.27;;;;;;;15.12;47.55;95630.84;4984627;28;20089;-69
2021/09/18 07:57:33;;;;;;;33.95;24.98;;;;;;;15.35;47.24;95629.59;4985349;28;20053;-69
2021/09/18 07:59:58;;;;;;;35.80;25.42;;;;;;;15.49;47.25;95625.88;4984616;28;20495;-70
2021/09/18 08:02:24;;;;;;;38.83;25.92;;;;;;;15.68;46.96;95630.63;4985021;28;20053;-70
2021/09/18 08:04:50;;;;;;;42.92;27.88;;;;;;;15.78;45.60;95630.19;4985088;28;20113;-70
2021/09/18 08:07:18;;;;;;;42.25;26.17;;;;;;;15.42;47.93;95638.47;4983135;28;20609;-70
2021/09/18 08:09:43;;;;;;;35.67;22.45;;;;;;;15.40;45.41;95623.63;4968105;28;20121;-70
2021/09/18 08:12:09;;;;;;;37.33;23.80;;;;;;;15.64;44.79;95624.84;4983013;28;20064;-70
2021/09/18 08:14:34;;;;;;;33.42;22.60;;;;;;;15.94;45.59;95624.31;4984775;28;20130;-70
2021/09/18 08:17:00;;;;;;;33.97;23.17;;;;;;;16.23;43.45;95624.84;4984505;28;20098;-70
2021/09/18 08:19:25;;;;;;;37.55;24.23;;;;;;;16.41;44.57;95628.69;4985403;28;20445;-70
2021/09/18 08:21:52;;;;;;;42.05;24.40;;;;;;;16.54;42.64;95622.44;4985327;28;20421;-70
2021/09/18 08:24:18;;;;;;;42.65;25.90;;;;;;;16.95;44.46;95624.81;4971950;28;20139;-69
2021/09/18 08:26:43;;;;;;;31.45;20.95;;;;;;;17.30;42.16;95624.34;4964114;28;20062;-69
2021/09/18 08:29:09;;;;;;;36.63;23.10;;;;;;;17.37;43.22;95630.50;4983764;28;20032;-69
2021/09/18 08:31:34;;;;;;;38.30;22.42;;;;;;;16.86;42.61;95627.00;4983914;28;20034;-70
2021/09/18 08:34:00;;;;;;;37.13;23.02;;;;;;;16.98;41.35;95627.09;4985020;28;20041;-70
2021/09/18 08:36:25;;;;;;;44.03;26.52;;;;;;;17.26;42.94;95632.06;4985221;28;20057;-70
2021/09/18 08:38:50;;;;;;;46.55;26.73;;;;;;;17.32;41.70;95632.22;4983987;28;20408;-70
2021/09/18 08:41:16;;;;;;;44.00;25.30;;;;;;;17.50;40.56;95626.88;4983750;28;20046;-70
2021/09/18 08:43:42;;;;;;;36.33;23.20;;;;;;;17.46;40.87;95628.38;4985983;28;20100;-70
2021/09/18 08:46:07;;;;;;;43.10;25.50;;;;;;;17.60;41.84;95628.22;4984203;28;20840;-70
2021/09/18 08:48:33;;;;;;;39.90;24.48;;;;;;;17.54;41.89;95633.44;4960752;28;20567;-70
2021/09/18 08:50:58;;;;;;;41.65;25.48;;;;;;;17.74;40.87;95629.72;4963071;28;20138;-70
2021/09/18 08:53:24;;;;;;;40.67;23.42;;;;;;;17.56;42.00;95627.00;4985696;28;20087;-70
2021/09/18 08:55:58;;;;;;;35.17;22.33;;;;;;;17.58;42.02;95630.31;4964307;28;20115;-70
2021/09/18 08:58:24;;;;;;;39.88;25.00;;;;;;;17.46;42.44;95633.75;4966154;28;20114;-70
2021/09/18 09:00:54;;;;;;;42.83;26.35;;;;;;;17.17;43.22;95636.09;4960380;28;20099;-71
2021/09/18 09:03:26;;;;;;;44.13;26.77;;;;;;;16.86;42.92;95635.84;4967718;28;20034;-70
2021/09/18 09:05:58;;;;;;;44.38;25.20;;;;;;;16.97;42.10;95636.19;4983998;28;20079;-70
2021/09/18 09:08:23;;;;;;;42.38;25.00;;;;;;;16.73;42.83;95642.13;4983027;28;20095;-70
2021/09/18 09:10:48;;;;;;;35.00;23.10;;;;;;;16.55;43.30;95625.94;4985609;28;20089;-69
2021/09/18 09:13:18;;;;;;;38.92;23.42;;;;;;;16.97;42.07;95630.81;4984797;28;20122;-70
2021/09/18 09:15:48;;;;;;;35.33;21.92;;;;;;;17.02;42.23;95629.13;4967428;28;20496;-70
2021/09/18 09:18:19;;;;;;;33.97;21.70;;;;;;;16.92;42.36;95636.03;4968290;28;20095;-70
2021/09/18 09:20:49;;;;;;;31.70;20.83;;;;;;;16.99;41.25;95626.88;4967891;28;20127;-70
2021/09/18 09:23:22;;;;;;;33.35;21.13;;;;;;;16.92;43.03;95639.53;4983797;28;20094;-70
2021/09/18 09:25:49;;;;;;;31.88;20.50;;;;;;;17.08;41.95;95635.50;4983658;28;20033;-70
2021/09/18 09:28:34;;;;;;;35.15;20.90;;;;;;;17.33;41.18;95636.56;4984709;28;20057;-70
2021/09/18 09:31:31;;;;;;;31.42;20.15;;;;;;;17.38;40.56;95634.84;4983234;28;20034;-70
2021/09/18 09:34:00;;;;;;;30.40;20.20;;;;;;;17.59;39.98;95631.97;4964298;28;20444;-70
2021/09/18 09:36:26;;;;;;;30.52;19.95;;;;;;;18.03;39.89;95637.31;4977418;28;20473;-70
2021/09/18 09:38:52;;;;;;;26.52;17.08;;;;;;;18.33;39.67;95630.31;4966758;28;20022;-70
2021/09/18 09:41:27;;;;;;;21.33;15.10;;;;;;;18.37;37.64;95639.59;4982625;28;20599;-70
2021/09/18 09:43:53;;;;;;;23.10;16.25;;;;;;;17.61;38.94;95635.25;4984066;28;20526;-70
2021/09/18 09:46:18;;;;;;;22.83;15.40;;;;;;;17.54;38.69;95636.16;4984606;28;20157;-70
2021/09/18 09:48:44;;;;;;;24.70;16.05;;;;;;;17.94;39.24;95642.19;4974441;28;20595;-70
2021/09/18 09:51:09;;;;;;;22.15;14.45;;;;;;;18.34;38.25;95632.78;4966422;28;20029;-70
2021/09/18 09:53:35;;;;;;;23.65;15.02;;;;;;;18.58;37.99;95642.84;4984837;28;20034;-70
2021/09/18 09:56:06;;;;;;;18.83;14.00;;;;;;;18.68;37.29;95638.59;4983952;28;20089;-70
2021/09/18 09:58:54;;;;;;;20.33;14.73;;;;;;;19.03;36.11;95642.41;4984307;28;20033;-70
2021/09/18 10:01:19;;;;;;;20.73;13.80;;;;;;;19.38;36.40;95642.72;4962918;28;20038;-70
2021/09/18 10:03:45;;;;;;;20.38;14.60;;;;;;;19.28;36.29;95643.28;4971214;28;20377;-69
2021/09/18 10:06:10;;;;;;;26.27;18.05;;;;;;;19.43;36.34;95640.13;4983225;28;20031;-70
2021/09/18 10:08:36;;;;;;;60.17;44.25;;;;;;;19.79;35.77;95634.72;4982986;28;20045;-70
2021/09/18 10:11:01;;;;;;;31.30;24.15;;;;;;;19.56;35.52;95639.91;4950041;28;20562;-70
2021/09/18 10:13:27;;;;;;;23.95;16.30;;;;;;;20.07;35.86;95639.41;4983371;28;20594;-70
2021/09/18 10:15:52;;;;;;;24.65;15.43;;;;;;;20.32;34.49;95638.25;4966400;28;20034;-70
2021/09/18 10:18:18;;;;;;;25.17;16.35;;;;;;;19.64;38.11;95637.91;4983189;28;20030;-70
2021/09/18 10:23:19;;;;;;;22.60;14.43;;;;;;;19.07;36.78;95640.88;4982261;28;20407;-70
2021/09/18 10:25:53;;;;;;;19.40;13.95;;;;;;;19.13;35.71;95635.59;4965893;28;20022;-70
2021/09/18 10:28:26;;;;;;;21.23;14.23;;;;;;;19.10;35.45;95634.19;4982243;28;20145;-69
2021/09/18 10:30:59;;;;;;;18.73;12.95;;;;;;;19.03;36.33;95637.00;4984026;28;20570;-70
2021/09/18 10:33:34;;;;;;;25.60;18.10;;;;;;;19.30;35.85;95635.78;4966909;28;20046;-70
2021/09/18 10:36:29;;;;;;;23.00;14.88;;;;;;;19.65;35.57;95631.44;4983113;28;20039;-69
2021/09/18 10:39:18;;;;;;;23.67;17.15;;;;;;;19.74;34.93;95629.22;4981164;28;20037;-69
2021/09/18 10:41:48;;;;;;;14.88;11.23;;;;;;;20.11;34.04;95623.50;4963823;28;20035;-70
2021/09/18 10:44:15;;;;;;;16.90;12.55;;;;;;;19.94;33.50;95623.41;4974233;28;20050;-69
2021/09/18 10:46:43;;;;;;;17.08;12.23;;;;;;;20.35;33.22;95623.44;4983338;28;20231;-69
2021/09/18 10:49:31;;;;;;;17.42;12.05;;;;;;;20.83;32.84;95620.53;4980334;28;20038;-70
2021/09/18 10:52:29;;;;;;;13.07;9.68;;;;;;;21.30;31.71;95619.44;4982510;28;20046;-69
2021/09/18 10:55:10;;;;;;;16.98;12.82;;;;;;;21.66;32.28;95626.44;4970274;28;20089;-69
2021/09/18 10:57:38;;;;;;;18.70;13.88;;;;;;;21.61;31.54;95619.88;4981498;28;20054;-70
2021/09/18 11:00:12;;;;;;;17.73;12.70;;;;;;;21.47;32.19;95621.28;4980558;28;20069;-70
2021/09/18 11:02:42;;;;;;;19.33;14.10;;;;;;;20.86;33.19;95622.75;4971072;28;20037;-70
2021/09/18 11:05:27;;;;;;;20.30;15.15;;;;;;;20.69;33.25;95620.03;4963676;28;20043;-70
2021/09/18 11:08:00;;;;;;;27.98;21.15;;;;;;;20.31;34.43;95624.97;4954498;28;20392;-70
2021/09/18 11:10:28;;;;;;;20.63;16.60;;;;;;;20.72;33.72;95622.25;4962470;28;20061;-70
2021/09/18 11:13:06;;;;;;;17.38;13.60;;;;;;;20.88;33.05;95617.94;4963181;28;20062;-69
2021/09/18 11:15:44;;;;;;;17.77;13.63;;;;;;;21.12;33.56;95615.06;4963933;28;20035;-70
2021/09/18 11:18:13;;;;;;;20.80;17.10;;;;;;;21.61;32.45;95622.59;4962677;28;20361;-70
2021/09/18 11:20:39;;;;;;;13.20;9.75;;;;;;;22.31;31.66;95617.78;4962115;28;20411;-70
2021/09/18 11:23:04;;;;;;;13.18;10.93;;;;;;;22.79;30.77;95618.03;4963059;28;20038;-70